Morgantown, Mississippi
Current Conditions -  °F | °C
As of 11:55 AM on Thursday 30 Oct 2014 (Local Time) from KSTF Reporting Station
Clear Clear  
Wind Chill: 64°   Ceiling: Unl
Heat Index: 64°   Visibility: 10mi
Dew Point: 36°   Wind: 6mph
Humidity: 34%   Direction: 360°N
Pressure: 30.14"   Gusts: NA
Location:  33.3677°N, 89.0513°W
Report Text: KSTF 301655Z AUTO 36005KT 10SM CLR 18/02 A3014 RMK AO2
Loading
Personal Weather Stations






























Interactive Weather Map New forecast layout! Learn more

10-Day Weather Forecast

Advertisements
Track Severe Weather on mobile